Time;durP1;ratioP1;P1;durP2;ratioP2;P2;SDS_P1;SDS_P2;PMS_P1;PMS_P2;Temp;Humidity;BMP_temperature;BMP_pressure;BME280_temperature;BME280_humidity;BME280_pressure;Samples;Min_cycle;Max_cycle;Signal;HPM_P1;HPM_P2
2022/01/23 00:00:07;;;;;;;42.97;25.65;;;;;;;3.65;98.49;103407.75;5050045;28;20036;-84
2022/01/23 00:02:34;;;;;;;44.97;25.27;;;;;;;3.61;98.36;103404.16;5050361;28;20390;-84
2022/01/23 00:05:06;;;;;;;41.83;25.27;;;;;;;3.64;98.33;103406.00;5047411;28;20025;-84
2022/01/23 00:07:33;;;;;;;44.20;25.83;;;;;;;3.62;98.26;103386.63;5049489;28;20048;-83
2022/01/23 00:09:59;;;;;;;45.17;26.27;;;;;;;3.63;98.34;103388.38;5049579;28;20057;-84
2022/01/23 00:12:27;;;;;;;44.42;25.48;;;;;;;3.64;98.47;103395.47;5030635;28;20549;-83
2022/01/23 00:17:36;;;;;;;43.50;24.65;;;;;;;3.61;98.72;103387.50;5034269;28;20044;-84
2022/01/23 00:20:08;;;;;;;41.08;24.05;;;;;;;3.62;98.41;103381.34;5049624;28;20386;-84
2022/01/23 00:22:46;;;;;;;48.13;27.40;;;;;;;3.65;98.74;103382.31;5049561;28;20437;-84
2022/01/23 00:30:43;;;;;;;44.25;25.75;;;;;;;3.64;98.48;103375.28;5049534;28;20055;-83
2022/01/23 00:33:10;;;;;;;45.25;25.45;;;;;;;3.65;98.65;103373.53;5046803;28;20107;-83
2022/01/23 00:35:37;;;;;;;50.30;26.20;;;;;;;3.63;98.68;103376.09;5048950;28;20073;-84
2022/01/23 00:38:05;;;;;;;44.95;26.17;;;;;;;3.63;98.70;103367.31;5049248;28;20036;-84
2022/01/23 00:40:31;;;;;;;46.08;26.98;;;;;;;3.65;98.38;103363.88;5049123;28;20033;-83
2022/01/23 00:42:58;;;;;;;45.08;25.33;;;;;;;3.65;98.48;103368.25;5046841;28;20057;-84
2022/01/23 00:45:33;;;;;;;43.97;25.13;;;;;;;3.64;98.54;103367.38;5047082;28;20057;-84
2022/01/23 00:48:08;;;;;;;43.90;25.85;;;;;;;3.63;98.87;103367.31;5048745;28;20028;-85
2022/01/23 00:50:39;;;;;;;44.10;26.05;;;;;;;3.60;98.63;103370.81;5048671;28;20029;-84
2022/01/23 00:53:10;;;;;;;42.92;26.15;;;;;;;3.61;98.68;103374.31;5045733;28;20041;-84
2022/01/23 00:55:41;;;;;;;48.85;27.40;;;;;;;3.61;98.76;103369.94;5047908;28;20037;-83
2022/01/23 00:58:06;;;;;;;46.90;26.83;;;;;;;3.59;98.83;103366.38;5049070;28;20374;-84
2022/01/23 01:00:32;;;;;;;49.72;26.90;;;;;;;3.59;98.76;103363.75;5048715;28;20037;-84
2022/01/23 01:02:58;;;;;;;44.05;25.90;;;;;;;3.61;98.82;103363.78;5046754;28;20048;-84
2022/01/23 01:05:26;;;;;;;47.70;27.40;;;;;;;3.60;98.87;103357.63;5047969;28;20097;-84
2022/01/23 01:07:53;;;;;;;47.45;28.20;;;;;;;3.61;98.75;103356.75;5047018;28;20486;-84
2022/01/23 01:10:24;;;;;;;46.33;26.02;;;;;;;3.60;98.81;103362.91;5048790;28;20050;-84
2022/01/23 01:12:55;;;;;;;46.95;26.67;;;;;;;3.60;98.99;103351.47;5047162;28;20055;-84
2022/01/23 01:15:35;;;;;;;46.55;26.98;;;;;;;3.62;99.08;103361.16;5047780;28;20029;-84
2022/01/23 01:31:43;;;;;;;;;;;;;;;3.63;98.82;103359.41;5042191;28;20594;-84
2022/01/23 01:34:17;;;;;;;46.70;26.40;;;;;;;3.57;98.80;103360.22;5039241;28;20350;-84
2022/01/23 01:36:48;;;;;;;43.17;25.55;;;;;;;3.58;98.85;103367.25;5047625;28;20469;-84
2022/01/23 01:39:17;;;;;;;46.75;26.90;;;;;;;3.58;98.81;103371.63;5047828;28;20032;-84
2022/01/23 01:41:43;;;;;;;48.53;26.98;;;;;;;3.59;98.76;103376.03;5048642;28;20212;-83
2022/01/23 01:44:09;;;;;;;45.47;26.05;;;;;;;3.58;98.64;103382.16;5045964;28;20028;-84
2022/01/23 01:46:34;;;;;;;45.83;25.25;;;;;;;3.59;98.89;103373.38;5047325;28;20496;-83
2022/01/23 01:49:00;;;;;;;43.28;24.85;;;;;;;3.60;98.68;103372.56;5048044;28;20032;-84
2022/01/23 01:51:30;;;;;;;44.78;26.67;;;;;;;3.59;98.63;103376.91;5047587;28;20025;-83
2022/01/23 01:54:03;;;;;;;45.45;27.05;;;;;;;3.57;98.68;103372.50;5045017;28;20395;-84
2022/01/23 01:56:36;;;;;;;45.10;25.77;;;;;;;3.59;98.64;103373.38;5048220;28;20033;-84
2022/01/23 01:59:23;;;;;;;46.60;25.80;;;;;;;3.59;98.58;103379.53;5047922;28;20025;-84
2022/01/23 02:15:11;;;;;;;50.22;27.83;;;;;;;3.56;98.61;103373.34;5045046;28;20052;-84
2022/01/23 02:50:28;;;;;;;48.08;26.13;;;;;;;3.54;98.69;103354.88;5047948;28;20060;-84
2022/01/23 02:53:12;;;;;;;41.15;23.75;;;;;;;3.55;98.56;103345.22;5044525;28;19930;-84
2022/01/23 02:55:38;;;;;;;41.70;24.27;;;;;;;3.54;98.54;103346.09;5040863;28;20052;-84
2022/01/23 02:58:06;;;;;;;41.30;24.63;;;;;;;3.54;98.47;103344.34;5047843;28;20029;-84
2022/01/23 03:00:36;;;;;;;46.03;25.33;;;;;;;3.52;98.50;103337.28;5047385;28;20405;-84
2022/01/23 03:03:10;;;;;;;45.55;25.17;;;;;;;3.50;98.70;103335.50;5037478;28;20032;-84
2022/01/23 03:05:38;;;;;;;45.65;24.48;;;;;;;3.53;98.52;103339.06;5046728;28;20037;-84
2022/01/23 03:08:25;;;;;;;41.55;24.30;;;;;;;3.54;98.76;103338.19;5046850;28;20434;-84
2022/01/23 03:11:04;;;;;;;42.90;23.85;;;;;;;3.54;98.75;103332.91;5047279;28;20108;-84
2022/01/23 03:13:50;;;;;;;40.40;24.60;;;;;;;3.54;98.66;103339.06;5034447;28;20071;-84
2022/01/23 03:24:07;;;;;;;39.78;23.67;;;;;;;3.54;98.69;103343.47;5036980;28;20025;-84
2022/01/23 03:27:37;;;;;;;43.03;23.73;;;;;;;3.55;98.57;103350.50;5050361;28;20040;-84
2022/01/23 03:30:17;;;;;;;44.63;23.40;;;;;;;3.55;98.59;103345.22;5050223;28;20501;-84
2022/01/23 03:32:46;;;;;;;46.25;24.70;;;;;;;3.52;98.33;103337.28;5026964;28;20497;-84
2022/01/23 03:35:13;;;;;;;42.55;24.40;;;;;;;3.55;98.48;103346.09;5042618;28;20417;-83
2022/01/23 03:37:39;;;;;;;45.17;24.60;;;;;;;3.53;98.46;103346.97;5050048;28;20150;-84
2022/01/23 03:40:05;;;;;;;44.55;24.10;;;;;;;3.56;98.47;103358.44;5050570;28;20086;-84
2022/01/23 03:42:33;;;;;;;40.75;23.92;;;;;;;3.50;98.41;103348.66;5048527;28;20063;-84
2022/01/23 03:45:31;;;;;;;46.33;24.02;;;;;;;3.52;98.39;103351.34;5049728;28;20029;-84
2022/01/23 03:49:30;;;;;;;44.28;24.23;;;;;;;3.54;98.41;103354.88;5050429;28;20127;-84
2022/01/23 03:50:45;;;;;;;39.90;22.80;;;;;;;3.56;98.38;103347.91;5050139;28;20045;-84
2022/01/23 03:53:11;;;;;;;41.22;24.48;;;;;;;3.52;98.26;103342.56;5047051;28;20049;-84
2022/01/23 03:55:37;;;;;;;42.95;24.67;;;;;;;3.55;98.39;103356.63;5049616;28;20036;-84
2022/01/23 03:58:02;;;;;;;46.80;24.00;;;;;;;3.55;98.45;103351.38;5031754;28;20025;-84
2022/01/23 04:00:28;;;;;;;41.67;23.45;;;;;;;3.55;98.39;103358.38;5049329;28;20451;-83
2022/01/23 04:02:53;;;;;;;42.95;24.50;;;;;;;3.56;98.44;103350.53;5046037;28;20070;-82
2022/01/23 04:05:18;;;;;;;46.22;24.73;;;;;;;3.49;98.59;103335.47;5029416;28;20029;-82
2022/01/23 04:07:45;;;;;;;41.22;23.48;;;;;;;3.54;98.28;103346.97;5046830;28;20036;-82
2022/01/23 04:10:13;;;;;;;44.60;24.77;;;;;;;3.55;98.37;103358.38;5047575;28;20108;-82
2022/01/23 04:20:41;;;;;;;46.55;24.40;;;;;;;3.57;98.38;103369.84;5047212;28;20131;-82
2022/01/23 04:48:46;;;;;;;46.40;25.05;;;;;;;3.55;98.01;103377.72;5046386;28;19924;-83
2022/01/23 05:06:47;;;;;;;45.90;24.17;;;;;;;3.54;98.68;103367.16;5048709;28;20600;-84
2022/01/23 05:09:14;;;;;;;46.15;25.63;;;;;;;3.55;98.55;103366.28;5048958;28;20404;-84
2022/01/23 05:11:49;;;;;;;47.30;25.38;;;;;;;3.52;98.60;103361.88;5047668;28;20021;-83
2022/01/23 05:14:17;;;;;;;54.40;27.15;;;;;;;3.52;98.56;103363.63;5047536;28;20055;-84
2022/01/23 05:16:43;;;;;;;48.20;27.30;;;;;;;3.52;98.57;103359.25;5048114;28;20115;-83
2022/01/23 05:19:08;;;;;;;44.03;26.27;;;;;;;3.55;98.53;103368.91;5048702;28;20103;-83
2022/01/23 05:24:17;;;;;;;49.33;27.05;;;;;;;3.56;98.47;103362.81;5048319;28;20037;-82
2022/01/23 05:26:45;;;;;;;52.58;27.90;;;;;;;3.53;98.42;103366.28;5048647;28;20127;-83
2022/01/23 05:29:12;;;;;;;52.50;28.20;;;;;;;3.55;98.61;103371.56;5048575;28;20100;-83
2022/01/23 05:31:38;;;;;;;50.83;27.13;;;;;;;3.54;98.42;103373.31;5047054;28;20029;-83
2022/01/23 05:34:03;;;;;;;53.75;28.75;;;;;;;3.55;98.39;103375.06;5047445;28;20077;-83
2022/01/23 05:36:28;;;;;;;50.20;28.27;;;;;;;3.52;98.63;103369.78;5030053;28;20021;-82
2022/01/23 05:38:54;;;;;;;53.20;29.98;;;;;;;3.56;98.43;103383.88;5048358;28;20036;-82
2022/01/23 05:41:19;;;;;;;53.40;28.30;;;;;;;3.55;98.64;103377.72;5047838;28;20032;-82
2022/01/23 05:43:45;;;;;;;52.97;28.42;;;;;;;3.57;98.25;103372.50;5045045;28;20458;-83
2022/01/23 05:46:10;;;;;;;52.15;27.85;;;;;;;3.54;98.75;103368.03;5047918;28;20393;-82
2022/01/23 05:48:35;;;;;;;51.10;28.65;;;;;;;3.57;98.60;103372.50;5048011;28;20025;-82
2022/01/23 05:51:01;;;;;;;51.22;28.50;;;;;;;3.56;98.45;103374.25;5048410;28;20017;-84
2022/01/23 05:53:26;;;;;;;51.80;27.45;;;;;;;3.55;98.66;103369.81;5044282;28;20041;-83
2022/01/23 05:55:51;;;;;;;49.63;28.30;;;;;;;3.54;98.55;103367.16;5047976;28;20078;-83
2022/01/23 05:58:17;;;;;;;50.50;28.42;;;;;;;3.52;98.26;103361.00;5030154;28;20057;-83
2022/01/23 06:00:42;;;;;;;56.13;28.80;;;;;;;3.55;98.70;103368.91;5046681;28;20033;-83
2022/01/23 06:03:07;;;;;;;50.47;28.38;;;;;;;3.55;98.46;103368.91;5044993;28;20453;-83
2022/01/23 06:05:32;;;;;;;51.00;28.27;;;;;;;3.54;98.44;103364.53;5047632;28;20040;-83
2022/01/23 06:07:58;;;;;;;50.00;29.65;;;;;;;3.51;98.94;103362.72;5047158;28;20036;-83
2022/01/23 06:10:26;;;;;;;52.42;28.92;;;;;;;3.50;98.87;103369.72;5047627;28;20029;-83
2022/01/23 06:12:52;;;;;;;53.42;29.50;;;;;;;3.49;98.71;103361.81;5045746;28;20037;-83
2022/01/23 06:15:18;;;;;;;58.20;30.58;;;;;;;3.49;98.78;103367.06;5047973;28;20448;-82
2022/01/23 06:17:43;;;;;;;55.97;29.63;;;;;;;3.51;98.79;103367.97;5047988;28;20021;-83
2022/01/23 06:20:11;;;;;;;52.47;28.75;;;;;;;3.50;98.75;103375.00;5047466;28;20489;-83
2022/01/23 06:22:36;;;;;;;51.08;28.13;;;;;;;3.50;98.91;103374.09;5045339;28;20068;-83
2022/01/23 06:25:05;;;;;;;50.40;28.02;;;;;;;3.50;98.79;103377.63;5047327;28;20044;-83
2022/01/23 06:27:31;;;;;;;50.65;28.60;;;;;;;3.52;98.71;103371.53;5046657;28;20040;-83
2022/01/23 06:29:56;;;;;;;54.08;28.80;;;;;;;3.52;98.79;103376.78;5048084;28;20049;-83
2022/01/23 06:32:21;;;;;;;54.13;30.38;;;;;;;3.52;98.90;103376.78;5045043;28;20072;-83
2022/01/23 06:34:47;;;;;;;53.95;29.40;;;;;;;3.50;98.71;103369.72;5043395;28;20072;-84
2022/01/23 06:37:13;;;;;;;57.53;30.02;;;;;;;3.44;98.85;103363.47;5043851;28;20036;-83
2022/01/23 06:39:38;;;;;;;52.15;28.75;;;;;;;3.47;99.05;103366.16;5034922;28;20033;-83
2022/01/23 06:42:04;;;;;;;49.10;28.23;;;;;;;3.46;99.23;103369.63;5044639;28;20367;-83
2022/01/23 06:44:30;;;;;;;53.63;30.00;;;;;;;3.45;99.39;103376.66;5047219;28;20040;-83
2022/01/23 06:46:56;;;;;;;53.60;29.00;;;;;;;3.46;99.48;103382.81;5046691;28;20387;-83
2022/01/23 06:49:21;;;;;;;53.63;27.88;;;;;;;3.45;99.44;103396.84;5047649;28;20033;-83
2022/01/23 06:51:47;;;;;;;55.65;30.08;;;;;;;3.44;99.58;103395.94;5047568;28;20539;-83
2022/01/23 06:54:12;;;;;;;55.17;29.35;;;;;;;3.45;99.72;103394.19;5050798;28;20390;-84
2022/01/23 06:56:38;;;;;;;51.83;28.73;;;;;;;3.45;99.46;103395.09;5050701;28;20029;-83
2022/01/23 06:59:03;;;;;;;52.78;28.77;;;;;;;3.48;99.35;103396.91;5051567;28;20036;-83
2022/01/23 07:01:29;;;;;;;49.83;28.13;;;;;;;3.49;99.30;103398.66;5048855;28;20151;-83
2022/01/23 07:03:54;;;;;;;51.42;28.65;;;;;;;3.44;99.33;103395.94;5051130;28;20029;-83
2022/01/23 07:06:19;;;;;;;54.03;29.90;;;;;;;3.50;99.69;103406.59;5051470;28;20040;-83
2022/01/23 07:08:44;;;;;;;53.80;29.30;;;;;;;3.49;99.62;103404.81;5050989;28;20040;-83
2022/01/23 07:11:10;;;;;;;56.45;29.85;;;;;;;3.52;99.35;103408.38;5049436;28;20060;-83
2022/01/23 07:13:35;;;;;;;56.17;30.73;;;;;;;3.53;99.68;103415.41;5049279;28;20037;-83
2022/01/23 07:16:02;;;;;;;56.65;30.60;;;;;;;3.53;99.36;103415.41;5050742;28;20371;-83
2022/01/23 07:18:28;;;;;;;58.20;30.92;;;;;;;3.52;99.39;103418.91;5051314;28;20029;-83
2022/01/23 07:20:53;;;;;;;58.00;31.38;;;;;;;3.49;99.47;103412.72;5051188;28;20029;-83
2022/01/23 07:23:21;;;;;;;56.38;29.45;;;;;;;3.50;99.27;103417.13;5048956;28;20059;-83
2022/01/23 07:25:48;;;;;;;52.92;29.33;;;;;;;3.54;99.37;103423.34;5050403;28;20036;-83
2022/01/23 07:28:16;;;;;;;57.63;30.58;;;;;;;3.54;99.26;103430.34;5050456;28;20036;-83
2022/01/23 07:30:58;;;;;;;58.10;30.73;;;;;;;3.52;99.28;103429.44;5050805;28;20378;-82
2022/01/23 07:33:24;;;;;;;51.65;29.60;;;;;;;3.50;99.47;103425.03;5049042;28;20119;-83
2022/01/23 07:35:49;;;;;;;55.40;30.08;;;;;;;3.53;99.55;103432.09;5050300;28;20414;-83
2022/01/23 07:38:18;;;;;;;57.45;30.73;;;;;;;3.53;99.51;103431.22;5050317;28;20389;-83
2022/01/23 07:40:45;;;;;;;56.55;31.23;;;;;;;3.54;99.54;103433.00;5050177;28;20029;-83
2022/01/23 07:43:12;;;;;;;54.13;29.80;;;;;;;3.54;99.54;103440.88;5044509;28;20021;-83
2022/01/23 07:45:38;;;;;;;57.90;31.55;;;;;;;3.54;99.28;103430.34;5049912;28;20029;-83
2022/01/23 07:48:04;;;;;;;59.45;31.15;;;;;;;3.51;99.63;103433.81;5050565;28;20036;-83
2022/01/23 07:50:29;;;;;;;54.53;29.95;;;;;;;3.55;99.63;103446.16;5050259;28;20024;-83
2022/01/23 07:52:54;;;;;;;54.83;31.05;;;;;;;3.54;99.59;103439.13;5036024;28;20038;-83
2022/01/23 07:55:20;;;;;;;54.38;30.90;;;;;;;3.54;99.65;103436.50;5011386;28;20024;-83
2022/01/23 07:57:45;;;;;;;58.10;31.83;;;;;;;3.54;99.67;103444.41;5030207;28;20241;-83
2022/01/23 08:00:12;;;;;;;54.50;30.52;;;;;;;3.58;99.58;103459.41;5029507;28;20773;-83
2022/01/23 08:02:37;;;;;;;54.15;29.92;;;;;;;3.58;99.65;103455.88;5026969;28;20117;-83
2022/01/23 08:05:04;;;;;;;58.42;30.95;;;;;;;3.59;99.60;103455.91;5031375;28;20815;-83
2022/01/23 08:10:03;;;;;;;54.13;30.13;;;;;;;3.59;99.61;103450.66;5030076;28;20034;-83
2022/01/23 08:12:30;;;;;;;47.40;28.10;;;;;;;3.62;99.62;103452.47;5027628;28;20021;-82
2022/01/23 08:14:57;;;;;;;53.42;30.20;;;;;;;3.64;99.53;103453.41;5029370;28;20111;-83
2022/01/23 08:17:26;;;;;;;57.95;30.55;;;;;;;3.65;99.36;103460.44;5030175;28;20111;-82
2022/01/23 08:19:53;;;;;;;61.53;31.08;;;;;;;3.62;99.23;103452.47;5029447;28;20103;-83
2022/01/23 08:22:20;;;;;;;56.45;29.70;;;;;;;3.66;99.35;103455.19;5027193;28;20033;-83
2022/01/23 08:24:46;;;;;;;55.42;30.33;;;;;;;3.68;99.21;103457.88;5011056;28;20014;-83
2022/01/23 08:27:11;;;;;;;57.13;29.40;;;;;;;3.69;99.60;103452.63;5029631;28;20471;-83
2022/01/23 08:29:36;;;;;;;58.67;30.30;;;;;;;3.72;99.73;103464.94;5029466;28;20060;-83
2022/01/23 08:32:02;;;;;;;59.20;31.83;;;;;;;3.72;99.22;103460.59;5027269;28;20025;-83
2022/01/23 08:34:27;;;;;;;57.47;30.98;;;;;;;3.72;99.21;103459.66;5029472;28;20072;-83
2022/01/23 08:36:55;;;;;;;55.47;29.70;;;;;;;3.73;99.20;103461.47;5029011;28;20116;-83
2022/01/23 08:39:22;;;;;;;52.72;29.58;;;;;;;3.72;99.27;103465.84;5028606;28;20018;-83
2022/01/23 08:41:50;;;;;;;57.78;30.55;;;;;;;3.74;99.36;103474.66;5028309;28;20037;-83
2022/01/23 08:44:20;;;;;;;59.25;29.75;;;;;;;3.80;99.33;103483.53;5028240;28;20025;-83
2022/01/23 08:46:46;;;;;;;56.05;30.73;;;;;;;3.80;99.40;103487.06;5028645;28;20517;-83
2022/01/23 08:49:12;;;;;;;64.75;31.17;;;;;;;3.80;99.19;103487.06;5029379;28;20120;-83
2022/01/23 08:51:37;;;;;;;54.78;30.08;;;;;;;3.86;99.20;103486.31;5026197;28;20112;-82
2022/01/23 08:54:03;;;;;;;56.72;30.65;;;;;;;3.88;99.14;103481.94;5029338;28;20102;-82
2022/01/23 08:56:29;;;;;;;51.92;31.20;;;;;;;3.91;99.07;103493.44;5031775;28;20017;-83
2022/01/23 08:58:54;;;;;;;56.10;31.35;;;;;;;3.93;99.11;103491.72;5032153;28;20025;-83
2022/01/23 09:01:20;;;;;;;57.38;31.55;;;;;;;3.97;98.88;103484.75;5029507;28;20145;-83
2022/01/23 09:03:45;;;;;;;60.17;31.63;;;;;;;3.99;98.88;103485.66;5030703;28;20037;-83
2022/01/23 09:06:10;;;;;;;59.95;30.40;;;;;;;3.99;98.78;103481.28;5030821;28;20564;-82
2022/01/23 09:08:38;;;;;;;55.97;32.15;;;;;;;4.04;98.45;103477.84;5030629;28;20157;-83
2022/01/23 09:11:10;;;;;;;57.85;32.55;;;;;;;4.06;98.59;103482.31;5027201;28;20028;-83
2022/01/23 09:16:10;;;;;;;57.22;31.80;;;;;;;4.11;98.49;103472.72;5030429;28;20394;-84
2022/01/23 09:18:35;;;;;;;61.22;33.17;;;;;;;4.20;98.32;103477.25;5028548;28;20028;-83
2022/01/23 09:21:01;;;;;;;61.05;32.60;;;;;;;4.19;98.06;103471.09;5027211;28;20128;-83
2022/01/23 09:23:26;;;;;;;58.90;32.35;;;;;;;4.26;98.01;103472.09;5028387;28;20038;-82
2022/01/23 09:25:51;;;;;;;57.40;32.60;;;;;;;4.30;97.50;103473.03;5029305;28;20076;-83
2022/01/23 09:28:19;;;;;;;61.05;33.15;;;;;;;4.33;97.34;103479.25;5029749;28;20033;-85
2022/01/23 09:30:49;;;;;;;57.13;32.28;;;;;;;4.34;97.44;103475.75;5024073;28;20098;-84
2022/01/23 09:33:16;;;;;;;58.25;32.90;;;;;;;4.39;97.50;103482.00;5029174;28;20028;-84
2022/01/23 09:35:41;;;;;;;58.90;32.92;;;;;;;4.42;97.42;103476.75;5028608;28;20165;-83
2022/01/23 09:38:07;;;;;;;60.45;33.50;;;;;;;4.44;97.02;103480.34;5028284;28;20454;-84
2022/01/23 09:40:32;;;;;;;64.28;35.88;;;;;;;4.49;97.22;103488.31;5029823;28;20025;-84
2022/01/23 09:43:12;;;;;;;65.95;34.67;;;;;;;4.49;97.16;103481.28;5029923;28;20032;-84
2022/01/23 09:45:38;;;;;;;60.63;33.30;;;;;;;4.50;96.72;103482.16;5029532;28;20394;-84
2022/01/23 09:48:04;;;;;;;60.17;34.35;;;;;;;4.56;96.20;103494.59;5028136;28;20386;-83
2022/01/23 09:50:31;;;;;;;62.35;35.47;;;;;;;4.56;96.73;103492.84;5026353;28;20033;-84
2022/01/23 09:52:57;;;;;;;61.55;35.38;;;;;;;4.61;96.74;103499.06;5027618;28;20049;-83
2022/01/23 09:55:25;;;;;;;63.22;34.72;;;;;;;4.59;97.04;103484.94;5011932;28;20147;-84
2022/01/23 09:57:51;;;;;;;63.33;34.78;;;;;;;4.67;96.71;103496.50;5027836;28;20049;-84
2022/01/23 10:00:20;;;;;;;70.38;36.33;;;;;;;4.72;96.14;103499.22;5029099;28;20160;-83
2022/01/23 10:02:46;;;;;;;60.28;32.88;;;;;;;4.74;95.90;103498.41;5020827;28;20046;-85
2022/01/23 10:05:12;;;;;;;63.08;33.60;;;;;;;4.75;95.94;103500.16;5024551;28;20565;-85
2022/01/23 10:07:42;;;;;;;59.65;35.40;;;;;;;4.80;95.65;103507.25;5029828;28;20120;-85
2022/01/23 10:10:12;;;;;;;62.38;34.20;;;;;;;4.80;95.29;103502.88;5046552;28;20048;-85
2022/01/23 10:12:40;;;;;;;63.00;34.65;;;;;;;4.82;95.13;103514.34;5007106;28;20486;-85
2022/01/23 10:15:07;;;;;;;64.55;34.13;;;;;;;4.88;94.82;103508.28;5028063;28;20029;-84
2022/01/23 10:17:34;;;;;;;62.55;35.70;;;;;;;4.86;94.99;103499.47;5030227;28;20390;-85
2022/01/23 10:20:00;;;;;;;63.38;34.75;;;;;;;4.90;95.05;103501.28;5028382;28;20494;-84
2022/01/23 10:22:26;;;;;;;60.22;33.95;;;;;;;4.95;95.35;103495.19;5028629;28;20697;-84
2022/01/23 10:24:51;;;;;;;64.72;36.00;;;;;;;5.02;95.21;103500.56;5033830;28;20034;-84
2022/01/23 10:27:17;;;;;;;59.28;34.80;;;;;;;5.04;94.50;103498.84;5029521;28;20117;-85
2022/01/23 10:29:46;;;;;;;61.35;34.10;;;;;;;5.05;94.84;103490.94;5032131;28;20025;-84
2022/01/23 10:32:18;;;;;;;59.22;33.67;;;;;;;5.11;93.63;103492.78;5030804;28;20036;-84
2022/01/23 10:34:54;;;;;;;61.15;34.13;;;;;;;5.14;94.07;103495.44;5032547;28;20029;-84
2022/01/23 10:37:27;;;;;;;62.17;33.80;;;;;;;5.14;93.82;103499.00;5032039;28;20382;-85
2022/01/23 10:39:53;;;;;;;60.05;34.25;;;;;;;5.11;93.69;103479.59;5033232;28;20487;-85
2022/01/23 10:42:46;;;;;;;64.35;34.65;;;;;;;5.18;93.61;103495.53;5030630;28;20021;-84
2022/01/23 10:48:40;;;;;;;62.55;35.05;;;;;;;5.24;93.32;103492.97;5031013;28;20553;-85
2022/01/23 10:50:40;;;;;;;56.35;33.63;;;;;;;5.32;92.34;103489.56;5021956;28;20041;-84
2022/01/23 10:53:06;;;;;;;56.20;33.05;;;;;;;5.36;92.09;103486.97;5031321;28;20088;-84
2022/01/23 10:55:34;;;;;;;62.28;33.92;;;;;;;5.41;92.13;103487.03;5031614;28;20497;-85
2022/01/23 10:58:02;;;;;;;58.17;33.53;;;;;;;5.41;92.00;103494.97;5030979;28;20060;-84
2022/01/23 11:00:45;;;;;;;58.85;33.58;;;;;;;5.43;92.81;103482.63;5029060;28;20347;-85
2022/01/23 11:03:14;;;;;;;60.28;35.50;;;;;;;5.50;91.77;103481.84;5029599;28;20018;-84
2022/01/23 11:05:40;;;;;;;59.67;33.40;;;;;;;5.51;91.94;103494.19;5028207;28;20029;-84
2022/01/23 11:08:23;;;;;;;57.80;32.92;;;;;;;5.58;91.73;103479.31;5030094;28;20047;-85
2022/01/23 11:11:07;;;;;;;63.87;33.23;;;;;;;5.56;91.53;103481.94;5025400;28;20127;-85
2022/01/23 11:19:21;;;;;;;58.25;31.42;;;;;;;5.69;90.78;103475.06;5021009;28;20037;-85
2022/01/23 11:21:47;;;;;;;56.38;33.30;;;;;;;5.73;90.91;103479.50;5009431;28;20442;-85
2022/01/23 11:24:13;;;;;;;58.58;33.10;;;;;;;5.78;90.48;103476.91;5021845;28;20025;-89
2022/01/23 11:26:38;;;;;;;57.70;32.65;;;;;;;5.80;90.77;103473.41;5027910;28;20087;-85
2022/01/23 11:29:13;;;;;;;56.88;32.08;;;;;;;5.83;90.42;103475.19;5029955;28;20021;-83
2022/01/23 11:31:40;;;;;;;55.17;31.23;;;;;;;5.85;90.66;103465.50;5030215;28;20461;-84
2022/01/23 11:34:11;;;;;;;57.00;31.95;;;;;;;5.88;89.93;103477.00;5028158;28;20487;-85
2022/01/23 11:36:36;;;;;;;54.50;30.83;;;;;;;5.86;89.45;103456.75;5027479;28;20087;-85
2022/01/23 11:39:19;;;;;;;56.78;32.67;;;;;;;5.84;89.64;103455.81;5028096;28;20029;-84
2022/01/23 11:59:01;;;;;;;54.03;30.55;;;;;;;5.99;89.92;103454.25;5029547;28;20495;-83
2022/01/23 12:01:26;;;;;;;56.55;30.55;;;;;;;6.01;89.77;103446.31;5025946;28;20030;-85
2022/01/23 12:04:11;;;;;;;53.92;31.10;;;;;;;6.09;90.44;103454.34;5029370;28;20021;-84
2022/01/23 12:06:42;;;;;;;53.08;30.13;;;;;;;6.06;88.99;103441.09;5030052;28;20048;-85
2022/01/23 12:09:16;;;;;;;52.70;29.83;;;;;;;6.11;88.89;103444.69;5028959;28;20030;-84
2022/01/23 12:12:03;;;;;;;54.08;30.73;;;;;;;6.15;89.54;103444.72;5027111;28;20053;-84
2022/01/23 12:17:05;;;;;;;53.65;31.00;;;;;;;6.13;87.81;103440.28;5028235;28;20037;-84
2022/01/23 12:19:33;;;;;;;51.78;30.60;;;;;;;6.12;87.75;103439.41;5030193;28;20029;-84
2022/01/23 12:22:25;;;;;;;56.78;31.00;;;;;;;6.13;88.95;103435.00;5026981;28;20025;-85
2022/01/23 12:24:53;;;;;;;53.42;30.33;;;;;;;6.06;87.13;103434.06;5034934;28;20052;-84
2022/01/23 12:27:24;;;;;;;54.53;31.88;;;;;;;6.05;88.39;103429.63;5045227;28;20077;-84
2022/01/23 12:29:50;;;;;;;55.28;30.42;;;;;;;6.03;88.25;103425.22;5027547;28;20029;-84
2022/01/23 12:32:30;;;;;;;54.33;31.13;;;;;;;6.02;88.32;103429.63;5026984;28;20479;-84
2022/01/23 12:34:58;;;;;;;55.33;30.70;;;;;;;6.09;88.46;103433.19;5028900;28;20034;-83
2022/01/23 12:37:24;;;;;;;51.35;31.73;;;;;;;6.08;87.91;103429.66;5029511;28;20045;-83
2022/01/23 12:40:27;;;;;;;52.75;30.88;;;;;;;6.10;89.40;103432.31;5028625;28;20021;-85
2022/01/23 12:43:10;;;;;;;53.95;30.98;;;;;;;6.14;89.53;103427.06;4990677;28;20598;-85
2022/01/23 12:45:44;;;;;;;51.72;28.80;;;;;;;6.16;89.04;103424.44;5041672;28;20381;-85
2022/01/23 12:48:36;;;;;;;55.95;29.60;;;;;;;6.15;89.07;103415.63;5049576;28;20280;-86
2022/01/23 12:51:06;;;;;;;52.45;30.25;;;;;;;6.19;88.50;103416.56;5028539;28;20060;-86
2022/01/23 12:53:54;;;;;;;52.50;29.60;;;;;;;6.23;88.87;103421.88;5013776;28;20045;-85
2022/01/23 12:56:22;;;;;;;52.33;29.90;;;;;;;6.18;88.34;103406.81;5004616;28;20732;-85
2022/01/23 12:58:59;;;;;;;48.90;29.35;;;;;;;6.23;88.09;103410.41;5010684;28;20173;-87
2022/01/23 13:01:27;;;;;;;47.25;28.55;;;;;;;6.27;87.40;103409.56;5008161;28;20112;-86
2022/01/23 13:03:57;;;;;;;47.97;28.50;;;;;;;6.28;86.91;103403.41;5009043;28;20475;-84
2022/01/23 13:06:38;;;;;;;52.60;28.70;;;;;;;6.29;87.39;103405.16;5009880;28;20026;-84
2022/01/23 13:14:42;;;;;;;46.70;27.15;;;;;;;6.32;86.86;103402.53;5003870;28;20061;-86
2022/01/23 13:30:54;;;;;;;39.60;23.35;;;;;;;6.42;84.80;103388.50;5006928;28;20048;-85
2022/01/23 13:33:22;;;;;;;42.83;24.60;;;;;;;6.38;83.56;103385.81;5008427;28;20018;-84
2022/01/23 13:35:52;;;;;;;42.33;24.13;;;;;;;6.32;84.47;103386.66;5008811;28;20265;-84
2022/01/23 13:38:19;;;;;;;42.03;25.23;;;;;;;6.36;84.39;103396.41;5008903;28;20028;-84
2022/01/23 13:40:46;;;;;;;37.20;22.58;;;;;;;6.34;83.29;103391.97;5005319;28;20345;-83
2022/01/23 13:49:27;;;;;;;45.55;25.00;;;;;;;6.33;85.33;103383.16;5006208;28;20125;-84
2022/01/23 13:57:38;;;;;;;43.72;24.98;;;;;;;6.29;84.86;103391.06;5002564;28;20137;-84
2022/01/23 14:00:23;;;;;;;42.70;24.70;;;;;;;6.25;84.23;103379.56;4944006;28;20058;-83
2022/01/23 14:02:48;;;;;;;42.60;25.83;;;;;;;6.28;84.10;103371.66;4945709;28;20316;-86
2022/01/23 14:05:19;;;;;;;45.00;25.63;;;;;;;6.28;84.09;103373.41;4947227;29;20180;-84
2022/01/23 14:07:51;;;;;;;44.38;24.90;;;;;;;6.25;84.12;103366.34;4947655;28;20126;-85
2022/01/23 14:10:39;;;;;;;46.03;26.27;;;;;;;6.26;83.49;103376.03;4946076;28;20162;-86
2022/01/23 14:13:07;;;;;;;45.72;26.13;;;;;;;6.25;84.00;103376.91;4947279;29;20023;-86
2022/01/23 14:15:33;;;;;;;39.70;23.52;;;;;;;6.23;83.13;103368.09;4948136;29;20034;-86
2022/01/23 14:18:02;;;;;;;43.53;25.73;;;;;;;6.19;84.34;103358.38;4947506;29;20043;-86
2022/01/23 14:20:31;;;;;;;41.30;24.33;;;;;;;6.23;84.98;103368.97;4945491;28;20031;-85
2022/01/23 14:22:57;;;;;;;46.13;25.38;;;;;;;6.17;83.17;103368.03;4947234;28;20477;-86
2022/01/23 14:25:26;;;;;;;41.63;24.13;;;;;;;6.13;83.07;103372.41;4946538;28;20101;-86
2022/01/23 14:28:05;;;;;;;42.58;23.95;;;;;;;6.07;83.70;103374.13;4947094;29;20275;-86
2022/01/23 14:30:31;;;;;;;40.38;24.10;;;;;;;6.01;83.62;103372.31;4963723;28;20132;-86
2022/01/23 14:33:05;;;;;;;41.83;24.67;;;;;;;5.96;84.62;103382.84;5008451;28;20021;-86
2022/01/23 14:35:32;;;;;;;42.42;24.23;;;;;;;5.96;84.04;103385.47;5008179;28;20180;-86
2022/01/23 14:38:27;;;;;;;42.25;25.13;;;;;;;5.93;85.00;103384.56;5007837;28;20125;-85